createdAt,value
2022-08-16T00:02:23.580Z,97916.84
2022-08-16T00:04:53.844Z,97916.34
2022-08-16T00:07:30.920Z,97918.06
2022-08-16T00:09:59.598Z,97922.84
2022-08-16T00:12:29.157Z,97928.78
2022-08-16T00:15:00.913Z,97926.44
2022-08-16T00:17:29.107Z,97910.09
2022-08-16T00:20:21.396Z,97900.75
2022-08-16T00:22:54.495Z,97888.91
2022-08-16T00:26:33.390Z,97892.19
2022-08-16T00:28:14.114Z,97915.69
2022-08-16T00:30:42.847Z,97902.03
2022-08-16T00:33:13.379Z,97895.34
2022-08-16T00:35:41.396Z,97899.72
2022-08-16T00:38:40.492Z,97905.03
2022-08-16T00:41:02.712Z,97900.41
2022-08-16T00:43:40.830Z,97914.53
2022-08-16T00:46:33.533Z,97908.03
2022-08-16T00:49:02.521Z,97892.34
2022-08-16T00:51:30.696Z,97912.06
2022-08-16T00:54:03.052Z,97919.25
2022-08-16T00:56:56.196Z,97919.25
2022-08-16T00:59:26.178Z,97907.88
2022-08-16T01:01:54.584Z,97903.50
2022-08-16T01:04:29.177Z,97918.34
2022-08-16T01:07:03.031Z,97910.66
2022-08-16T01:09:34.349Z,97915.91
2022-08-16T01:12:08.623Z,97922.63
2022-08-16T01:14:41.467Z,97938.53
2022-08-16T01:17:13.944Z,97934.03
2022-08-16T01:19:43.780Z,97929.75
2022-08-16T01:22:47.164Z,97933.00
2022-08-16T01:25:10.856Z,97928.63
2022-08-16T01:27:42.765Z,97945.66
2022-08-16T01:30:19.406Z,97924.81
2022-08-16T01:33:02.190Z,97935.06
2022-08-16T01:35:39.784Z,97918.66
2022-08-16T01:38:19.661Z,97942.28
2022-08-16T01:40:51.278Z,97974.78
2022-08-16T01:43:19.983Z,97983.00
2022-08-16T01:45:57.884Z,97986.31
2022-08-16T01:48:32.446Z,97982.47
2022-08-16T01:51:16.269Z,97992.81
2022-08-16T01:53:45.337Z,97972.38
2022-08-16T01:56:33.226Z,97972.09
2022-08-16T01:59:06.952Z,97952.16
2022-08-16T02:01:49.538Z,97948.56
2022-08-16T02:04:48.835Z,97945.34
2022-08-16T02:07:11.150Z,97944.25
2022-08-16T02:09:42.432Z,97949.22
2022-08-16T02:12:42.122Z,97942.34
2022-08-16T02:15:17.829Z,97960.13
2022-08-16T02:17:54.426Z,97945.44
2022-08-16T02:20:26.330Z,97967.69
2022-08-16T02:22:57.277Z,97965.50
2022-08-16T02:25:52.121Z,97962.25
2022-08-16T02:28:19.316Z,97948.63
2022-08-16T02:30:51.662Z,97960.66
2022-08-16T02:33:24.248Z,97962.28
2022-08-16T02:35:59.937Z,97972.88
2022-08-16T02:38:31.482Z,97960.94
2022-08-16T02:41:07.360Z,97951.41
2022-08-16T02:43:40.871Z,97926.31
2022-08-16T02:46:10.766Z,97927.94
2022-08-16T02:48:47.452Z,97941.25
2022-08-16T02:51:18.952Z,97948.66
2022-08-16T02:53:52.261Z,97950.06
2022-08-16T02:56:22.699Z,97928.75
2022-08-16T02:58:54.640Z,97937.75
2022-08-16T03:01:37.320Z,97938.03
2022-08-16T03:04:41.499Z,97939.66
2022-08-16T03:07:11.567Z,97936.13
2022-08-16T03:09:45.396Z,97926.88
2022-08-16T03:12:17.709Z,97932.03
2022-08-16T03:14:51.280Z,97941.63
2022-08-16T03:17:22.816Z,97936.16
2022-08-16T03:20:03.170Z,97922.53
2022-08-16T03:22:39.590Z,97920.91
2022-08-16T03:25:17.184Z,97920.91
2022-08-16T03:27:56.432Z,97922.84
2022-08-16T03:30:33.293Z,97923.63
2022-08-16T03:33:05.103Z,97906.22
2022-08-16T03:35:44.300Z,97916.00
2022-08-16T03:38:35.020Z,97924.72
2022-08-16T03:41:25.314Z,97921.47
2022-08-16T03:44:00.596Z,97920.09
2022-08-16T03:46:47.825Z,97931.25
2022-08-16T03:49:36.476Z,97930.41
2022-08-16T03:52:07.393Z,97935.88
2022-08-16T03:54:38.167Z,97898.56
2022-08-16T03:57:20.733Z,97935.31
2022-08-16T03:59:52.426Z,97953.84
2022-08-16T04:02:31.604Z,97953.84
2022-08-16T04:05:02.106Z,97948.16
2022-08-16T04:07:33.832Z,97938.84
2022-08-16T04:10:11.432Z,97925.28
2022-08-16T04:12:54.930Z,97936.44
2022-08-16T04:15:26.302Z,97942.69
2022-08-16T04:18:11.172Z,97938.38
2022-08-16T04:20:43.335Z,97926.63
2022-08-16T04:23:11.909Z,97912.50
2022-08-16T04:25:43.412Z,97911.13
2022-08-16T04:28:51.967Z,97926.09
2022-08-16T04:31:07.398Z,97939.19
2022-08-16T04:33:51.108Z,97937.72
2022-08-16T04:36:21.830Z,97922.09
2022-08-16T04:38:50.723Z,97931.22
2022-08-16T04:41:32.661Z,97927.56
2022-08-16T04:44:30.977Z,97933.41
2022-08-16T04:47:00.874Z,97927.63
2022-08-16T04:49:43.735Z,97939.97
2022-08-16T04:52:33.518Z,97949.78
2022-08-16T04:55:13.447Z,97959.06
2022-08-16T04:57:45.311Z,97964.72
2022-08-16T05:00:32.058Z,97968.88
2022-08-16T05:03:31.289Z,97981.66
2022-08-16T05:06:05.199Z,97983.28
2022-08-16T05:08:35.898Z,97982.72
2022-08-16T05:11:15.083Z,97984.63
2022-08-16T05:13:47.969Z,97974.78
2022-08-16T05:16:24.310Z,97981.34
2022-08-16T05:19:00.515Z,97983.00
2022-08-16T05:21:37.961Z,97975.78
2022-08-16T05:24:08.939Z,97954.13
2022-08-16T05:26:43.066Z,97966.06
2022-08-16T05:29:14.786Z,97962.38
2022-08-16T05:31:53.395Z,97964.34
2022-08-16T05:34:22.958Z,97977.97
2022-08-16T05:36:57.417Z,97997.88
2022-08-16T05:39:33.518Z,97992.41
2022-08-16T05:42:09.664Z,97985.88
2022-08-16T05:44:39.928Z,97999.00
2022-08-16T05:47:15.162Z,97995.91
2022-08-16T05:49:46.008Z,97990.44
2022-08-16T05:52:20.989Z,97969.13
2022-08-16T05:55:01.018Z,97960.25
2022-08-16T05:57:34.613Z,97947.78
2022-08-16T06:00:09.338Z,97896.19
2022-08-16T06:02:41.370Z,97904.44
2022-08-16T06:05:41.722Z,97930.94
2022-08-16T06:08:32.190Z,97945.00
2022-08-16T06:11:10.115Z,97954.78
2022-08-16T06:13:42.108Z,97960.66
2022-08-16T06:16:18.590Z,97901.56
2022-08-16T06:18:52.007Z,97907.78
2022-08-16T06:21:22.881Z,97901.59
2022-08-16T06:23:56.847Z,97905.00
2022-08-16T06:26:34.742Z,97900.53
2022-08-16T06:29:07.705Z,97925.78
2022-08-16T06:31:49.236Z,97942.88
2022-08-16T06:34:54.965Z,97930.28
2022-08-16T06:37:13.332Z,97928.78
2022-08-16T06:39:49.646Z,97930.88
2022-08-16T06:42:47.027Z,97919.50
2022-08-16T06:45:37.856Z,97918.75
2022-08-16T06:48:18.844Z,97905.13
2022-08-16T06:50:50.124Z,97899.34
2022-08-16T06:53:19.703Z,97908.78
2022-08-16T06:56:05.956Z,97927.47
2022-08-16T06:59:03.585Z,97928.47
2022-08-16T07:01:43.446Z,97923.75
2022-08-16T07:04:28.123Z,97930.13
2022-08-16T07:07:05.564Z,97941.25
2022-08-16T07:09:34.520Z,97947.16
2022-08-16T07:12:05.900Z,97947.28
2022-08-16T07:14:37.086Z,97952.53
2022-08-16T07:17:08.414Z,97926.91
2022-08-16T07:20:03.382Z,97935.16
2022-08-16T07:22:43.111Z,97925.94
2022-08-16T07:25:35.037Z,97937.44
2022-08-16T07:28:24.554Z,97930.97
2022-08-16T07:30:55.874Z,97928.94
2022-08-16T07:33:52.866Z,97931.09
2022-08-16T07:36:29.240Z,97935.88
2022-08-16T07:39:00.025Z,97926.69
2022-08-16T07:41:34.155Z,97929.56
2022-08-16T07:44:15.447Z,97917.91
2022-08-16T07:46:45.444Z,97929.28
2022-08-16T07:49:20.296Z,97923.91
2022-08-16T07:51:49.031Z,97919.13
2022-08-16T07:54:37.867Z,97924.81
2022-08-16T07:57:11.708Z,97931.22
2022-08-16T07:59:46.093Z,97929.81
2022-08-16T08:02:20.351Z,97937.94
2022-08-16T08:04:53.245Z,97932.25
2022-08-16T08:07:21.967Z,97927.75
2022-08-16T08:09:53.330Z,97941.22
2022-08-16T08:12:31.623Z,97940.16
2022-08-16T08:15:09.895Z,97932.94
2022-08-16T08:17:42.934Z,97923.22
2022-08-16T08:20:23.279Z,97936.00
2022-08-16T08:23:00.126Z,97938.31
2022-08-16T08:25:55.141Z,97931.75
2022-08-16T08:28:20.462Z,97935.34
2022-08-16T08:31:01.365Z,97947.81
2022-08-16T08:33:34.022Z,97944.38
2022-08-16T08:36:11.446Z,97945.81
2022-08-16T08:38:52.320Z,97939.84
2022-08-16T08:43:57.684Z,97924.56
2022-08-16T08:46:35.669Z,97939.69
2022-08-16T08:49:08.721Z,97950.72
2022-08-16T08:51:42.376Z,97952.88
2022-08-16T08:54:20.516Z,97952.03
2022-08-16T08:56:53.371Z,97951.75
2022-08-16T08:59:46.102Z,97929.84
2022-08-16T09:02:19.427Z,97951.41
2022-08-16T09:04:53.139Z,97951.03
2022-08-16T09:07:23.934Z,97958.69
2022-08-16T09:10:06.295Z,97960.69
2022-08-16T09:12:38.829Z,97969.09
2022-08-16T09:15:13.551Z,97959.22
2022-08-16T09:17:51.687Z,97956.25
2022-08-16T09:20:25.883Z,97951.31
2022-08-16T09:22:55.767Z,97951.78
2022-08-16T09:25:33.835Z,97961.31
2022-08-16T09:28:09.344Z,97959.81
2022-08-16T09:30:45.096Z,97955.31
2022-08-16T09:33:20.061Z,97955.06
2022-08-16T09:35:53.337Z,97949.41
2022-08-16T09:38:31.913Z,97947.16
2022-08-16T09:41:02.424Z,97947.53
2022-08-16T09:43:58.467Z,97947.50
2022-08-16T09:46:48.741Z,97948.03
2022-08-16T09:49:16.686Z,97948.00
2022-08-16T09:51:53.414Z,97948.31
2022-08-16T09:54:22.204Z,97952.19
2022-08-16T09:56:53.835Z,97953.66
2022-08-16T09:59:25.412Z,97949.78
2022-08-16T10:01:59.008Z,97951.53
2022-08-16T10:04:35.676Z,97956.19
2022-08-16T10:07:15.892Z,97946.22
2022-08-16T10:09:54.969Z,97952.44
2022-08-16T10:12:44.160Z,97953.03
2022-08-16T10:15:15.408Z,97955.03
2022-08-16T10:18:00.697Z,97955.28
2022-08-16T10:20:34.523Z,97954.72
2022-08-16T10:23:08.366Z,97951.47
2022-08-16T10:27:17.953Z,97952.44
2022-08-16T10:28:32.462Z,97953.13
2022-08-16T10:31:12.084Z,97957.09
2022-08-16T10:33:47.651Z,97946.34
2022-08-16T10:36:38.686Z,97948.78
2022-08-16T10:39:08.501Z,97942.22
2022-08-16T10:41:37.133Z,97946.41
2022-08-16T10:44:09.517Z,97946.00
2022-08-16T10:46:41.562Z,97950.41
2022-08-16T10:49:16.804Z,97940.81
2022-08-16T10:52:01.647Z,97938.69
2022-08-16T10:54:58.400Z,97943.97
2022-08-16T10:57:24.858Z,97948.91
2022-08-16T11:00:04.062Z,97951.22
2022-08-16T11:03:00.445Z,97956.63
2022-08-16T11:05:21.309Z,97950.50
2022-08-16T11:07:53.338Z,97961.25
2022-08-16T11:13:57.279Z,97953.38
2022-08-16T11:19:04.176Z,97958.94
2022-08-16T11:21:37.625Z,97954.31
2022-08-16T11:24:41.945Z,97945.91
2022-08-16T11:27:23.295Z,97954.84
2022-08-16T11:29:55.552Z,97958.81
2022-08-16T11:32:31.310Z,97956.97
2022-08-16T11:35:11.152Z,97948.06
2022-08-16T11:40:44.174Z,97953.72
2022-08-16T11:43:16.684Z,97943.25
2022-08-16T11:45:53.862Z,97948.22
2022-08-16T11:48:24.585Z,97952.03
2022-08-16T11:50:53.286Z,97954.13
2022-08-16T11:53:22.188Z,97951.06
2022-08-16T11:55:55.066Z,97931.81
2022-08-16T11:58:25.341Z,97939.72
2022-08-16T12:00:57.446Z,97941.59
2022-08-16T12:03:34.648Z,97949.72
2022-08-16T12:06:10.734Z,97938.91
2022-08-16T12:08:42.629Z,97940.41
2022-08-16T12:11:14.624Z,97943.13
2022-08-16T12:13:46.910Z,97937.59
2022-08-16T12:16:17.597Z,97942.88
2022-08-16T12:21:23.211Z,97935.25
2022-08-16T12:23:51.541Z,97935.75
2022-08-16T12:26:23.598Z,97935.16
2022-08-16T12:28:55.908Z,97929.25
2022-08-16T12:31:26.186Z,97935.81
2022-08-16T12:33:57.631Z,97925.34
2022-08-16T12:36:30.351Z,97929.41
2022-08-16T12:38:59.406Z,97922.91
2022-08-16T12:41:29.092Z,97924.06
2022-08-16T12:44:04.234Z,97910.78
2022-08-16T12:46:33.660Z,97910.41
2022-08-16T12:49:01.949Z,97911.09
2022-08-16T12:51:58.400Z,97907.91
2022-08-16T12:54:25.805Z,97906.00
2022-08-16T12:56:56.109Z,97899.88
2022-08-16T12:59:24.826Z,97903.78
2022-08-16T13:02:00.686Z,97903.44
2022-08-16T13:04:31.375Z,97906.13
2022-08-16T13:09:37.736Z,97883.34
2022-08-16T13:12:19.864Z,97895.72
2022-08-16T13:14:50.370Z,97894.91
2022-08-16T13:17:23.942Z,97900.78
2022-08-16T13:20:12.601Z,97902.50
2022-08-16T13:22:46.464Z,97897.25
2022-08-16T13:25:21.419Z,97895.03
2022-08-16T13:28:01.681Z,97894.00
2022-08-16T13:30:40.990Z,97893.88
2022-08-16T13:33:13.426Z,97873.34
2022-08-16T13:35:45.348Z,97885.13
2022-08-16T13:38:25.219Z,97879.94
2022-08-16T13:40:56.572Z,97869.53
2022-08-16T13:43:31.059Z,97883.91
2022-08-16T13:46:04.518Z,97874.25
2022-08-16T13:48:42.741Z,97874.63
2022-08-16T13:51:15.679Z,97881.38
2022-08-16T13:53:54.563Z,97875.00
2022-08-16T13:56:31.758Z,97873.97
2022-08-16T13:59:14.299Z,97874.75
2022-08-16T14:01:54.593Z,97859.09
2022-08-16T14:04:27.192Z,97861.19
2022-08-16T14:06:57.535Z,97863.06
2022-08-16T14:09:28.286Z,97863.69
2022-08-16T14:11:57.673Z,97864.03
2022-08-16T14:14:29.639Z,97864.78
2022-08-16T14:16:59.392Z,97867.75
2022-08-16T14:19:29.237Z,97853.09
2022-08-16T14:22:14.639Z,97851.69
2022-08-16T14:24:48.478Z,97853.81
2022-08-16T14:27:17.808Z,97849.16
2022-08-16T14:29:51.309Z,97855.09
2022-08-16T14:32:33.381Z,97860.06
2022-08-16T14:35:08.331Z,97852.19
2022-08-16T14:37:37.493Z,97854.81
2022-08-16T14:40:07.101Z,97852.22
2022-08-16T14:42:36.642Z,97851.34
2022-08-16T14:45:08.804Z,97858.22
2022-08-16T14:47:38.319Z,97848.44
2022-08-16T14:50:09.192Z,97849.16
2022-08-16T14:52:55.163Z,97842.75
2022-08-16T14:55:28.363Z,97848.59
2022-08-16T14:57:57.543Z,97852.09
2022-08-16T15:00:33.243Z,97847.78
2022-08-16T15:03:10.512Z,97847.75
2022-08-16T15:05:40.621Z,97850.25
2022-08-16T15:08:10.249Z,97837.44
2022-08-16T15:10:44.903Z,97826.16
2022-08-16T15:13:15.330Z,97836.66
2022-08-16T15:15:56.271Z,97838.91
2022-08-16T15:18:31.556Z,97837.03
2022-08-16T15:21:02.050Z,97828.41
2022-08-16T15:23:33.678Z,97836.19
2022-08-16T15:26:04.386Z,97826.84
2022-08-16T15:28:38.063Z,97825.97
2022-08-16T15:31:10.362Z,97824.72
2022-08-16T15:33:48.511Z,97836.34
2022-08-16T15:36:21.941Z,97833.19
2022-08-16T15:39:05.812Z,97835.66
2022-08-16T15:42:11.069Z,97842.50
2022-08-16T15:44:51.297Z,97836.91
2022-08-16T15:47:26.223Z,97835.53
2022-08-16T15:49:55.908Z,97834.00
2022-08-16T15:52:29.546Z,97837.22
2022-08-16T15:55:13.130Z,97828.66
2022-08-16T15:57:51.167Z,97837.22
2022-08-16T16:00:21.058Z,97843.78
2022-08-16T16:03:00.096Z,97840.75
2022-08-16T16:05:29.578Z,97835.34
2022-08-16T16:08:10.765Z,97834.28
2022-08-16T16:10:41.824Z,97829.78
2022-08-16T16:13:11.572Z,97830.00
2022-08-16T16:15:43.188Z,97826.03
2022-08-16T16:18:13.597Z,97825.31
2022-08-16T16:20:46.967Z,97834.66
2022-08-16T16:23:17.459Z,97836.53
2022-08-16T16:25:46.840Z,97825.78
2022-08-16T16:29:05.011Z,97837.13
2022-08-16T16:31:06.642Z,97833.47
2022-08-16T16:33:39.730Z,97828.94
2022-08-16T16:36:09.335Z,97821.09
2022-08-16T16:38:39.287Z,97823.00
2022-08-16T16:41:11.281Z,97831.38
2022-08-16T16:43:41.550Z,97831.16
2022-08-16T16:46:40.940Z,97819.53
2022-08-16T16:49:04.101Z,97825.69
2022-08-16T16:51:40.803Z,97828.09
2022-08-16T16:54:12.883Z,97828.81
2022-08-16T16:56:46.042Z,97825.78
2022-08-16T16:59:18.216Z,97826.75
2022-08-16T17:01:59.900Z,97818.25
2022-08-16T17:04:39.026Z,97828.97
2022-08-16T17:07:10.770Z,97829.56
2022-08-16T17:09:40.553Z,97821.44
2022-08-16T17:12:09.925Z,97818.59
2022-08-16T17:14:53.615Z,97832.50
2022-08-16T17:17:22.325Z,97822.53
2022-08-16T17:19:52.783Z,97833.81
2022-08-16T17:22:23.701Z,97834.00
2022-08-16T17:25:01.786Z,97820.72
2022-08-16T17:27:33.498Z,97823.38
2022-08-16T17:30:02.815Z,97822.22
2022-08-16T17:32:47.919Z,97823.72
2022-08-16T17:35:19.250Z,97819.53
2022-08-16T17:37:51.703Z,97827.03
2022-08-16T17:40:40.655Z,97828.66
2022-08-16T17:43:10.497Z,97828.69
2022-08-16T17:45:39.156Z,97827.56
2022-08-16T17:48:07.791Z,97828.41
2022-08-16T17:50:37.634Z,97826.81
2022-08-16T17:53:06.144Z,97830.72
2022-08-16T17:55:35.183Z,97839.63
2022-08-16T17:58:18.089Z,97827.88
2022-08-16T18:00:52.125Z,97829.59
2022-08-16T18:03:24.205Z,97832.97
2022-08-16T18:06:12.461Z,97834.00
2022-08-16T18:08:41.396Z,97830.50
2022-08-16T18:11:13.379Z,97833.06
2022-08-16T18:13:43.085Z,97836.56
2022-08-16T18:16:11.755Z,97837.25
2022-08-16T18:18:42.676Z,97845.09
2022-08-16T18:21:32.729Z,97839.56
2022-08-16T18:24:00.865Z,97837.53
2022-08-16T18:26:29.105Z,97842.53
2022-08-16T18:28:57.191Z,97834.72
2022-08-16T18:31:25.509Z,97842.06
2022-08-16T18:33:55.661Z,97841.22
2022-08-16T18:36:25.395Z,97841.00
2022-08-16T18:38:54.604Z,97845.81
2022-08-16T18:41:24.037Z,97841.06
2022-08-16T18:43:55.463Z,97845.28
2022-08-16T18:46:40.887Z,97842.34
2022-08-16T18:49:09.252Z,97843.34
2022-08-16T18:51:42.683Z,97846.56
2022-08-16T18:54:11.810Z,97852.09
2022-08-16T18:56:56.549Z,97855.59
2022-08-16T18:59:28.952Z,97843.34
2022-08-16T19:02:00.429Z,97864.75
2022-08-16T19:04:56.349Z,97864.31
2022-08-16T19:07:29.587Z,97859.84
2022-08-16T19:10:01.912Z,97860.41
2022-08-16T19:12:47.153Z,97854.06
2022-08-16T19:15:18.364Z,97876.81
2022-08-16T19:17:48.455Z,97871.03
2022-08-16T19:20:23.346Z,97857.88
2022-08-16T19:23:11.001Z,97870.38
2022-08-16T19:25:47.514Z,97868.09
2022-08-16T19:28:49.737Z,97882.56
2022-08-16T19:31:13.260Z,97880.94
2022-08-16T19:33:53.706Z,97879.81
2022-08-16T19:36:31.876Z,97887.47
2022-08-16T19:39:08.610Z,97873.88
2022-08-16T19:41:39.387Z,97885.06
2022-08-16T19:44:08.572Z,97868.34
2022-08-16T19:46:37.805Z,97885.59
2022-08-16T19:49:06.694Z,97902.22
2022-08-16T19:51:35.108Z,97892.66
2022-08-16T19:54:05.164Z,97884.53
2022-08-16T19:56:33.563Z,97871.47
2022-08-16T19:59:18.572Z,97881.50
2022-08-16T20:01:51.023Z,97879.41
2022-08-16T20:04:19.653Z,97885.06
2022-08-16T20:06:48.224Z,97887.31
2022-08-16T20:09:18.472Z,97879.88
2022-08-16T20:11:47.649Z,97892.03
2022-08-16T20:14:24.717Z,97890.34
2022-08-16T20:16:56.894Z,97884.50
2022-08-16T20:19:27.141Z,97871.69
2022-08-16T20:21:57.167Z,97884.31
2022-08-16T20:24:36.505Z,97896.03
2022-08-16T20:27:09.382Z,97905.78
2022-08-16T20:29:40.163Z,97900.84
2022-08-16T20:32:13.159Z,97898.66
2022-08-16T20:34:42.468Z,97895.41
2022-08-16T20:37:12.651Z,97894.91
2022-08-16T20:39:44.159Z,97888.97
2022-08-16T20:42:13.665Z,97898.38
2022-08-16T20:44:42.969Z,97885.38
2022-08-16T20:47:11.442Z,97874.88
2022-08-16T20:49:39.798Z,97901.22
2022-08-16T20:52:10.752Z,97891.25
2022-08-16T20:54:39.982Z,97895.28
2022-08-16T20:57:09.786Z,97880.34
2022-08-16T20:59:39.778Z,97904.47
2022-08-16T21:02:10.414Z,97902.59
2022-08-16T21:04:38.809Z,97891.22
2022-08-16T21:07:07.800Z,97915.22
2022-08-16T21:09:37.811Z,97912.78
2022-08-16T21:12:10.481Z,97928.50
2022-08-16T21:14:42.929Z,97924.66
2022-08-16T21:17:13.236Z,97936.00
2022-08-16T21:19:42.129Z,97930.28
2022-08-16T21:22:15.225Z,97932.78
2022-08-16T21:24:44.204Z,97926.09
2022-08-16T21:27:17.546Z,97939.81
2022-08-16T21:29:46.832Z,97927.91
2022-08-16T21:32:34.660Z,97923.34
2022-08-16T21:35:08.861Z,97928.94
2022-08-16T21:37:37.542Z,97868.03
2022-08-16T21:40:07.171Z,97935.25
2022-08-16T21:42:39.502Z,97927.63
2022-08-16T21:45:14.416Z,97922.84
2022-08-16T21:47:43.503Z,97927.41
2022-08-16T21:50:13.329Z,97942.59
2022-08-16T21:52:41.946Z,97943.44
2022-08-16T21:55:11.644Z,97953.16
2022-08-16T21:57:43.839Z,97943.84
2022-08-16T22:02:39.122Z,97941.34
2022-08-16T22:05:08.411Z,97936.78
2022-08-16T22:07:37.218Z,97942.41
2022-08-16T22:11:04.583Z,97904.06
2022-08-16T22:12:57.750Z,97953.53
2022-08-16T22:15:27.109Z,97954.66
2022-08-16T22:18:01.628Z,97931.53
2022-08-16T22:20:30.884Z,97946.13
2022-08-16T22:23:08.269Z,97962.28
2022-08-16T22:25:37.021Z,97955.91
2022-08-16T22:28:06.893Z,97945.81
2022-08-16T22:30:35.799Z,97935.31
2022-08-16T22:33:11.046Z,97958.78
2022-08-16T22:35:45.226Z,97959.53
2022-08-16T22:38:54.248Z,97947.94
2022-08-16T22:41:05.084Z,97965.47
2022-08-16T22:43:34.007Z,97949.97
2022-08-16T22:46:02.374Z,97957.97
2022-08-16T22:48:32.141Z,97955.22
2022-08-16T22:51:07.952Z,97954.34
2022-08-16T22:53:37.364Z,97944.84
2022-08-16T22:56:06.080Z,97952.56
2022-08-16T22:58:37.357Z,97967.19
2022-08-16T23:01:06.312Z,97978.16
2022-08-16T23:03:36.552Z,97978.41
2022-08-16T23:06:05.865Z,97965.28
2022-08-16T23:08:40.005Z,97955.75
2022-08-16T23:11:11.039Z,97955.88
2022-08-16T23:13:50.059Z,97969.66
2022-08-16T23:16:32.411Z,97970.00
2022-08-16T23:19:03.252Z,97924.09
2022-08-16T23:21:32.018Z,97961.28
2022-08-16T23:24:00.469Z,97964.69
2022-08-16T23:26:46.652Z,97904.78
2022-08-16T23:29:24.524Z,97942.34
2022-08-16T23:31:56.251Z,97958.50
2022-08-16T23:34:28.144Z,97942.91
2022-08-16T23:36:56.809Z,97944.53
2022-08-16T23:39:25.717Z,97932.50
2022-08-16T23:41:54.188Z,97925.59
2022-08-16T23:44:54.939Z,97932.69
2022-08-16T23:47:11.265Z,97932.22
2022-08-16T23:49:56.713Z,97938.09
2022-08-16T23:52:39.312Z,97927.13
2022-08-16T23:55:17.392Z,97939.09
2022-08-16T23:57:47.137Z,97937.81
